Time;durP1;ratioP1;P1;durP2;ratioP2;P2;SDS_P1;SDS_P2;PMS_P1;PMS_P2;Temp;Humidity;BMP_temperature;BMP_pressure;BME280_temperature;BME280_humidity;BME280_pressure;Samples;Min_cycle;Max_cycle;Signal;HPM_P1;HPM_P2
2021/12/09 00:02:22;;;;;;;42.60;25.30;;;;;;;-3.23;99.59;98100.10;102538;1311;68631;-77
2021/12/09 00:04:48;;;;;;;44.50;24.50;;;;;;;-3.24;99.65;98106.20;102477;1310;73318;-78
2021/12/09 00:07:15;;;;;;;46.80;26.80;;;;;;;-3.23;99.64;98101.33;102342;1310;61444;-78
2021/12/09 00:09:42;;;;;;;45.70;26.00;;;;;;;-3.21;99.59;98103.19;102419;1310;61291;-76
2021/12/09 00:12:09;;;;;;;44.70;25.60;;;;;;;-3.18;99.77;98099.81;102443;1310;76383;-78
2021/12/09 00:14:37;;;;;;;39.30;23.00;;;;;;;-3.17;99.54;98099.08;102143;1314;68756;-78
2021/12/09 00:17:07;;;;;;;48.50;28.60;;;;;;;-3.17;99.55;98098.73;102401;1314;73754;-78
2021/12/09 00:19:34;;;;;;;;;;;;;;;-3.16;99.59;98103.39;102442;1314;61479;-79
2021/12/09 00:22:04;;;;;;;46.40;25.10;;;;;;;-3.14;99.67;98101.77;102452;1310;61763;-78
2021/12/09 00:24:30;;;;;;;44.20;26.60;;;;;;;-3.13;99.54;98098.28;102582;1311;75455;-78
2021/12/09 00:26:57;;;;;;;41.00;24.60;;;;;;;-3.11;99.58;98095.27;102438;1310;69275;-79
2021/12/09 00:29:24;;;;;;;43.90;25.50;;;;;;;-3.13;99.44;98092.38;102461;1310;73561;-78
2021/12/09 00:31:52;;;;;;;46.00;27.20;;;;;;;-3.15;99.50;98088.95;101773;1310;1002983;-79
2021/12/09 00:34:27;;;;;;;46.80;27.10;;;;;;;-3.18;99.40;98086.77;102494;1310;61835;-78
2021/12/09 00:36:59;;;;;;;43.30;24.90;;;;;;;-3.19;99.56;98083.15;102526;1310;75511;-79
2021/12/09 00:39:27;;;;;;;45.30;24.50;;;;;;;-3.20;99.45;98081.98;102182;1313;70551;-77
2021/12/09 00:41:53;;;;;;;39.60;23.80;;;;;;;-3.21;99.59;98083.90;102509;1310;74356;-79
2021/12/09 00:44:20;;;;;;;43.60;25.20;;;;;;;-3.21;99.57;98077.82;102569;1310;61288;-79
2021/12/09 00:46:46;;;;;;;46.80;25.30;;;;;;;-3.22;99.62;98073.85;102540;1310;61203;-78
2021/12/09 00:49:13;;;;;;;42.30;25.10;;;;;;;-3.25;99.60;98070.48;102564;1310;76367;-78
2021/12/09 00:51:39;;;;;;;44.50;26.80;;;;;;;-3.27;99.65;98070.85;102563;1313;70295;-79
2021/12/09 00:54:06;;;;;;;47.50;26.10;;;;;;;-3.27;99.65;98066.70;102546;1310;74081;-80
2021/12/09 00:56:33;;;;;;;46.10;26.70;;;;;;;-3.26;99.73;98064.05;102468;1310;61518;-78
2021/12/09 00:58:59;;;;;;;45.50;25.40;;;;;;;-3.26;99.74;98063.55;102556;1311;61350;-79
2021/12/09 01:01:26;;;;;;;39.90;23.70;;;;;;;-3.25;99.79;98057.96;102569;1311;75435;-80
2021/12/09 01:03:53;;;;;;;41.00;24.60;;;;;;;-3.26;99.87;98056.95;102426;1311;70387;-78
2021/12/09 01:06:20;;;;;;;48.90;28.00;;;;;;;-3.27;99.73;98053.14;102407;1311;73320;-79
2021/12/09 01:08:46;;;;;;;46.00;27.90;;;;;;;-3.28;99.73;98048.98;102411;1310;61360;-78
2021/12/09 01:11:14;;;;;;;44.40;25.80;;;;;;;-3.26;99.73;98044.63;102440;1311;61257;-78
2021/12/09 01:13:42;;;;;;;45.10;24.90;;;;;;;-3.27;99.88;98040.98;102414;1310;76249;-80
2021/12/09 01:16:11;;;;;;;49.50;26.40;;;;;;;-3.28;99.80;98036.50;102165;1310;70470;-78
2021/12/09 01:18:38;;;;;;;44.70;25.60;;;;;;;-3.29;99.80;98031.66;102447;1310;74388;-79
2021/12/09 01:21:06;;;;;;;40.80;25.60;;;;;;;-3.29;99.81;98029.07;102488;1310;61380;-78
2021/12/09 01:23:33;;;;;;;47.00;25.80;;;;;;;-3.32;99.81;98025.31;102446;1314;61318;-79
2021/12/09 01:26:03;;;;;;;44.90;24.90;;;;;;;-3.34;99.82;98025.19;102453;1310;76178;-79
2021/12/09 01:28:38;;;;;;;42.60;25.10;;;;;;;-3.35;99.92;98022.26;102435;1310;69437;-79
2021/12/09 01:31:06;;;;;;;42.90;23.40;;;;;;;-3.35;99.95;98023.31;102398;1314;73719;-79
2021/12/09 01:33:35;;;;;;;47.30;26.60;;;;;;;-3.36;99.97;98024.39;102193;1311;61444;-77
2021/12/09 01:36:04;;;;;;;39.90;23.00;;;;;;;-3.35;99.98;98025.73;102577;1314;62070;-78
2021/12/09 01:38:32;;;;;;;43.10;24.80;;;;;;;-3.35;99.94;98027.29;102507;1310;76505;-78
2021/12/09 01:40:59;;;;;;;38.80;22.20;;;;;;;-3.35;100.00;98036.16;102507;1310;69888;-79
2021/12/09 01:43:26;;;;;;;42.70;26.60;;;;;;;-3.35;99.99;98029.89;102419;1310;74552;-77
2021/12/09 01:46:14;;;;;;;43.10;25.50;;;;;;;-3.35;99.99;98030.59;102399;1310;61305;-78
2021/12/09 01:48:44;;;;;;;41.50;24.00;;;;;;;-3.35;99.94;98020.69;102451;1311;61339;-78
2021/12/09 01:51:11;;;;;;;42.20;24.40;;;;;;;-3.34;99.98;98021.55;102495;1310;76256;-79
2021/12/09 01:53:38;;;;;;;44.20;26.10;;;;;;;-3.34;99.93;98026.07;102412;1313;67967;-78
2021/12/09 01:56:09;;;;;;;48.20;27.10;;;;;;;-3.34;100.00;98025.36;102407;1310;74170;-78
2021/12/09 01:58:37;;;;;;;50.60;28.20;;;;;;;-3.34;99.99;98023.11;102563;1310;61251;-79
2021/12/09 02:01:05;;;;;;;45.30;25.20;;;;;;;-3.34;99.92;98021.20;102406;1311;61418;-78
2021/12/09 02:03:32;;;;;;;42.40;25.50;;;;;;;-3.34;99.96;98018.09;102410;1311;75154;-79
2021/12/09 02:05:59;;;;;;;41.40;24.70;;;;;;;-3.33;99.97;98018.71;102547;1310;66597;-79
2021/12/09 02:08:26;;;;;;;44.60;25.80;;;;;;;-3.31;99.96;98022.33;102446;1313;73224;-78
2021/12/09 02:10:52;;;;;;;42.50;25.30;;;;;;;-3.29;99.91;98021.59;102399;1307;61431;-78
2021/12/09 02:13:20;;;;;;;39.50;25.20;;;;;;;-3.27;99.92;98029.70;102422;1314;61747;-78
2021/12/09 02:15:51;;;;;;;43.80;26.40;;;;;;;-3.25;99.89;98025.29;102383;1311;76367;-78
2021/12/09 02:18:18;;;;;;;33.90;21.60;;;;;;;-3.24;99.94;98024.04;101045;1310;1003681;-79
2021/12/09 02:20:45;;;;;;;40.60;24.30;;;;;;;-3.22;99.91;98022.42;102374;1310;73365;-78
2021/12/09 02:23:16;;;;;;;36.70;23.50;;;;;;;-3.23;99.87;98021.95;102417;1314;61311;-78
2021/12/09 02:25:44;;;;;;;41.40;25.80;;;;;;;-3.24;99.88;98013.46;102416;1310;61770;-79
2021/12/09 02:28:13;;;;;;;39.10;23.40;;;;;;;-3.25;99.84;98011.05;102043;1313;72376;-80
2021/12/09 02:30:40;;;;;;;40.60;24.60;;;;;;;-3.27;99.94;98013.02;102411;1310;69343;-78
2021/12/09 02:33:07;;;;;;;39.60;23.70;;;;;;;-3.28;99.90;98014.42;102435;1310;73320;-79
2021/12/09 02:35:34;;;;;;;41.80;24.00;;;;;;;-3.27;99.92;98011.98;102417;1310;61412;-79
2021/12/09 02:38:00;;;;;;;39.60;25.00;;;;;;;-3.27;99.85;98012.48;101961;1316;62351;-79
2021/12/09 02:40:27;;;;;;;42.30;25.10;;;;;;;-3.28;99.96;98018.09;102498;1311;61298;-78
2021/12/09 02:42:54;;;;;;;38.70;22.30;;;;;;;-3.27;99.95;98019.98;102482;1311;69402;-79
2021/12/09 02:45:21;;;;;;;40.90;25.20;;;;;;;-3.26;99.98;98020.13;102530;1311;73235;-79
2021/12/09 02:47:47;;;;;;;40.40;24.30;;;;;;;-3.25;99.94;98021.65;102475;1310;61316;-79
2021/12/09 02:50:14;;;;;;;41.10;25.20;;;;;;;-3.24;99.93;98020.06;102516;1310;61392;-78
2021/12/09 02:52:40;;;;;;;40.70;24.50;;;;;;;-3.22;99.99;98022.95;102502;1310;75941;-78
2021/12/09 02:55:08;;;;;;;42.60;25.30;;;;;;;-3.19;99.98;98016.98;102650;1310;69707;-79
2021/12/09 02:57:34;;;;;;;39.80;22.90;;;;;;;-3.19;99.96;98020.25;102166;1313;74315;-78
2021/12/09 03:00:30;;;;;;;43.30;24.20;;;;;;;-3.20;99.84;98013.18;102659;1311;61348;-80
2021/12/09 03:02:58;;;;;;;36.10;23.80;;;;;;;-3.21;99.91;98008.16;102139;1313;61300;-78
2021/12/09 03:05:27;;;;;;;42.00;24.80;;;;;;;-3.21;99.97;98015.10;102258;1313;76999;-78
2021/12/09 03:07:54;;;;;;;37.50;21.90;;;;;;;-3.21;99.97;98018.06;102345;1316;69627;-78
2021/12/09 03:10:25;;;;;;;39.60;23.60;;;;;;;-3.20;99.93;98018.90;102276;1320;71547;-78
2021/12/09 03:12:55;;;;;;;38.60;23.90;;;;;;;-3.19;99.99;98019.39;102410;1313;61414;-78
2021/12/09 03:15:22;;;;;;;;;;;;;;;-3.18;99.97;98025.63;102560;1317;61406;-77
2021/12/09 03:17:50;;;;;;;43.30;24.20;;;;;;;-3.17;99.97;98025.95;103129;1314;75331;-77
2021/12/09 03:20:19;;;;;;;38.30;22.80;;;;;;;-3.14;99.99;98028.11;102997;1320;69286;-77
2021/12/09 03:22:48;;;;;;;36.50;23.90;;;;;;;-3.10;99.95;98026.46;103041;1314;74046;-77
2021/12/09 03:25:17;;;;;;;38.10;23.40;;;;;;;-3.07;99.92;98032.11;104284;1316;61322;-77
2021/12/09 03:27:44;;;;;;;39.80;25.50;;;;;;;-3.06;99.95;98037.46;104546;1320;61469;-79
2021/12/09 03:30:14;;;;;;;40.30;24.30;;;;;;;-3.04;99.98;98039.47;104620;1316;76656;-78
2021/12/09 03:32:42;;;;;;;37.00;23.70;;;;;;;-3.01;99.93;98040.44;104662;1314;69339;-78
2021/12/09 03:35:11;;;;;;;36.70;23.70;;;;;;;-3.00;99.88;98035.20;103246;1312;73376;-78
2021/12/09 03:37:39;;;;;;;40.40;24.80;;;;;;;-2.99;99.89;98035.53;102625;1310;61208;-77
2021/12/09 03:40:07;;;;;;;41.30;23.10;;;;;;;-2.99;99.87;98033.09;102581;1311;61406;-77
2021/12/09 03:42:34;;;;;;;37.70;24.70;;;;;;;-2.98;99.91;98037.25;102316;1317;75489;-79
2021/12/09 03:45:03;;;;;;;42.00;25.00;;;;;;;-2.99;99.83;98028.91;102556;1310;69370;-79
2021/12/09 03:47:31;;;;;;;44.00;24.60;;;;;;;-2.98;99.94;98024.55;102560;1311;73504;-78
2021/12/09 03:49:59;;;;;;;37.60;23.30;;;;;;;-2.99;99.90;98022.50;102185;1317;61332;-79
2021/12/09 03:52:28;;;;;;;41.10;24.10;;;;;;;-3.02;99.87;98020.84;102175;1310;61644;-78
2021/12/09 03:54:55;;;;;;;37.80;23.50;;;;;;;-3.04;99.86;98016.55;102561;1311;75265;-78
2021/12/09 03:57:22;;;;;;;36.40;22.20;;;;;;;-3.07;99.93;98019.25;102629;1310;70588;-77
2021/12/09 03:59:49;;;;;;;36.90;23.80;;;;;;;-3.08;100.00;98015.63;102939;1310;73186;-78
2021/12/09 04:02:17;;;;;;;39.80;25.00;;;;;;;-3.07;99.99;98017.70;103560;1311;61327;-78
2021/12/09 04:04:44;;;;;;;39.70;23.00;;;;;;;-3.07;99.99;98021.48;103625;1311;60831;-79
2021/12/09 04:07:11;;;;;;;40.40;24.40;;;;;;;-3.04;99.92;98034.63;103002;1310;75331;-78
2021/12/09 04:09:38;;;;;;;40.30;23.80;;;;;;;-3.02;99.96;98036.83;102494;1313;68380;-78
2021/12/09 04:12:05;;;;;;;40.20;24.50;;;;;;;-3.01;99.97;98038.53;102561;1311;74216;-78
2021/12/09 04:14:32;;;;;;;41.00;24.90;;;;;;;-3.01;99.95;98041.51;102500;1310;61333;-79
2021/12/09 04:16:59;;;;;;;39.40;22.60;;;;;;;-3.00;99.95;98036.43;102470;1310;62364;-79
2021/12/09 04:19:25;;;;;;;37.00;22.00;;;;;;;-3.00;99.95;98039.04;102161;1314;75550;-79
2021/12/09 04:21:52;;;;;;;43.60;29.00;;;;;;;-3.02;99.95;98037.02;102535;1310;61403;-77
2021/12/09 04:24:20;;;;;;;40.90;23.20;;;;;;;-3.02;99.96;98028.15;102286;1314;73107;-78
2021/12/09 04:26:50;;;;;;;46.90;28.20;;;;;;;-3.03;99.92;98025.89;102443;1314;61373;-78
2021/12/09 04:29:18;;;;;;;44.30;25.40;;;;;;;-3.02;99.99;98027.62;102321;1310;62146;-78
2021/12/09 04:31:47;;;;;;;53.30;29.70;;;;;;;-3.01;99.88;98025.69;102474;1310;75692;-77
2021/12/09 04:34:15;;;;;;;42.80;25.00;;;;;;;-3.01;99.91;98018.55;102477;1311;69384;-78
2021/12/09 04:36:42;;;;;;;40.90;24.50;;;;;;;-3.01;99.88;98026.55;102486;1311;73266;-78
2021/12/09 04:39:09;;;;;;;36.50;22.90;;;;;;;-3.00;99.90;98024.79;101711;1313;1003163;-79
2021/12/09 04:41:36;;;;;;;39.70;24.00;;;;;;;-3.00;99.90;98022.34;102322;1311;211792;-78
2021/12/09 04:44:04;;;;;;;43.80;25.40;;;;;;;-3.00;99.87;98020.77;102425;1313;74260;-78
2021/12/09 04:46:31;;;;;;;38.30;23.70;;;;;;;-2.98;99.91;98020.55;102487;1310;69697;-79
2021/12/09 04:48:57;;;;;;;39.80;24.00;;;;;;;-2.97;99.88;98018.44;102280;1316;73366;-79
2021/12/09 04:51:24;;;;;;;37.50;23.70;;;;;;;-2.96;99.85;98016.34;102459;1311;61311;-79
2021/12/09 04:53:51;;;;;;;39.70;24.10;;;;;;;-2.96;99.89;98004.86;102476;1311;61320;-78
2021/12/09 04:56:18;;;;;;;36.40;24.10;;;;;;;-2.97;99.87;98004.02;102432;1311;76399;-78
2021/12/09 04:58:44;;;;;;;36.30;22.00;;;;;;;-2.99;99.78;97997.83;102529;1310;68296;-81
2021/12/09 05:01:12;;;;;;;38.30;23.30;;;;;;;-3.02;99.78;97993.73;102401;1310;73212;-78
2021/12/09 05:03:38;;;;;;;43.70;25.70;;;;;;;-3.03;99.88;97984.21;102504;1316;61363;-78
2021/12/09 05:06:05;;;;;;;37.90;23.70;;;;;;;-3.04;99.93;97980.41;102552;1310;61314;-79
2021/12/09 05:08:33;;;;;;;43.30;24.20;;;;;;;-3.03;100.00;97982.30;102431;1311;74478;-79
2021/12/09 05:11:07;;;;;;;40.70;23.30;;;;;;;-3.02;100.00;97989.38;102477;1311;69529;-79
2021/12/09 05:13:37;;;;;;;39.60;24.50;;;;;;;-3.01;99.98;97988.64;102397;1314;72911;-78
2021/12/09 05:16:07;;;;;;;41.00;25.50;;;;;;;-3.00;99.98;98007.05;102484;1311;61909;-79
2021/12/09 05:18:37;;;;;;;40.50;24.90;;;;;;;-2.97;99.97;98017.59;102489;1317;61828;-78
2021/12/09 05:21:06;;;;;;;39.60;23.60;;;;;;;-2.97;99.94;98007.68;102494;1314;75592;-78
2021/12/09 05:23:35;;;;;;;36.90;21.80;;;;;;;-2.99;99.84;97992.59;102238;1314;69375;-81
2021/12/09 05:26:02;;;;;;;38.00;23.10;;;;;;;-2.98;99.94;97997.27;102064;1313;74243;-79
2021/12/09 05:28:32;;;;;;;43.40;26.00;;;;;;;-2.96;100.00;98008.33;102421;1313;61313;-78
2021/12/09 05:33:46;;;;;;;42.00;24.30;;;;;;;-2.89;99.93;97991.45;102137;1317;75491;-77
2021/12/09 05:36:13;;;;;;;36.40;21.70;;;;;;;-2.90;99.87;97988.70;102002;1316;68795;-79
2021/12/09 05:38:39;;;;;;;43.40;25.40;;;;;;;-2.89;99.87;98002.75;102425;1310;73367;-77
2021/12/09 05:41:06;;;;;;;44.30;25.90;;;;;;;-2.87;99.85;98011.20;102451;1310;61305;-77
2021/12/09 05:43:34;;;;;;;51.60;31.60;;;;;;;-2.84;99.95;98023.28;102487;1314;60556;-79
2021/12/09 05:46:00;;;;;;;41.90;24.80;;;;;;;-2.80;99.96;98020.73;102056;1316;75583;-77
2021/12/09 05:48:27;;;;;;;42.00;25.40;;;;;;;-2.79;99.89;98018.80;102489;1310;69423;-80
2021/12/09 05:50:54;;;;;;;44.50;27.00;;;;;;;-2.78;99.88;98021.05;102547;1311;74382;-78
2021/12/09 05:53:20;;;;;;;40.80;26.00;;;;;;;-2.77;99.82;98028.31;102481;1316;61343;-78
2021/12/09 05:55:47;;;;;;;44.30;25.20;;;;;;;-2.78;99.80;98029.02;102606;1311;61350;-79
2021/12/09 05:58:17;;;;;;;46.50;27.20;;;;;;;-2.78;99.88;98018.60;102056;1317;75532;-80
2021/12/09 06:00:44;;;;;;;42.90;25.40;;;;;;;-2.79;99.87;98012.02;102452;1310;69461;-78
2021/12/09 06:03:11;;;;;;;43.30;25.30;;;;;;;-2.80;99.99;98026.30;102403;1313;73489;-78
2021/12/09 06:05:38;;;;;;;51.10;29.20;;;;;;;-2.78;100.00;98047.98;102066;1317;61470;-78
2021/12/09 06:08:06;;;;;;;46.40;27.50;;;;;;;-2.74;100.00;98032.73;102463;1310;61375;-79
2021/12/09 06:10:34;;;;;;;46.30;27.00;;;;;;;-2.72;100.00;98024.48;102517;1316;75184;-78
2021/12/09 06:13:01;;;;;;;43.00;27.10;;;;;;;-2.72;100.00;98027.81;102470;1314;69516;-78
2021/12/09 06:15:28;;;;;;;43.60;26.00;;;;;;;-2.72;100.00;98029.54;102422;1310;72791;-78
2021/12/09 06:17:55;;;;;;;47.50;27.30;;;;;;;-2.72;100.00;98034.77;101724;1310;1015809;-79
2021/12/09 06:20:21;;;;;;;42.30;27.70;;;;;;;-2.71;100.00;98034.73;102468;1311;61209;-78
2021/12/09 06:22:48;;;;;;;48.00;28.40;;;;;;;-2.69;100.00;98049.09;102401;1314;73583;-78
2021/12/09 06:25:18;;;;;;;46.30;28.20;;;;;;;-2.66;100.00;98063.42;102457;1310;69337;-79
2021/12/09 06:27:48;;;;;;;43.70;26.80;;;;;;;-2.64;100.00;98071.55;102299;1311;73207;-77
2021/12/09 06:30:17;;;;;;;47.60;29.90;;;;;;;-2.63;100.00;98053.80;102500;1313;61416;-79
2021/12/09 06:32:43;;;;;;;50.70;28.80;;;;;;;-2.62;100.00;98054.63;102505;1310;61225;-79
2021/12/09 06:35:11;;;;;;;46.40;27.80;;;;;;;-2.62;100.00;98053.42;102397;1311;76255;-78
2021/12/09 06:37:43;;;;;;;50.00;29.60;;;;;;;-2.61;100.00;98058.61;102260;1317;68948;-78
2021/12/09 06:40:13;;;;;;;65.70;34.60;;;;;;;-2.61;100.00;98059.46;102509;1311;73607;-78
2021/12/09 06:42:42;;;;;;;192.90;92.70;;;;;;;-2.61;100.00;98065.58;102518;1313;61380;-78
2021/12/09 06:45:10;;;;;;;87.20;43.40;;;;;;;-2.59;100.00;98065.15;102486;1314;61318;-78
2021/12/09 06:47:38;;;;;;;63.10;35.70;;;;;;;-2.56;100.00;98060.89;102532;1311;74904;-77
2021/12/09 06:50:07;;;;;;;61.50;33.40;;;;;;;-2.56;100.00;98048.39;102072;1313;70304;-77
2021/12/09 06:52:34;;;;;;;67.10;36.70;;;;;;;-2.58;100.00;98047.57;102452;1313;70286;-77
2021/12/09 06:55:00;;;;;;;61.70;33.10;;;;;;;-2.58;100.00;98037.48;102052;1314;61415;-78
2021/12/09 06:57:27;;;;;;;60.00;30.10;;;;;;;-2.58;100.00;98037.31;102487;1313;61326;-80
2021/12/09 06:59:53;;;;;;;58.70;31.20;;;;;;;-2.58;100.00;98048.44;102474;1311;76613;-78
2021/12/09 07:02:20;;;;;;;65.00;33.40;;;;;;;-2.59;100.00;98055.77;102486;1313;69438;-78
2021/12/09 07:04:47;;;;;;;64.80;32.10;;;;;;;-2.57;100.00;98056.07;102075;1316;71470;-80
2021/12/09 07:07:14;;;;;;;65.10;33.30;;;;;;;-2.56;100.00;98051.86;102519;1310;61304;-78
2021/12/09 07:09:40;;;;;;;68.70;33.90;;;;;;;-2.55;100.00;98053.21;102445;1310;61289;-79
2021/12/09 07:12:08;;;;;;;61.10;32.20;;;;;;;-2.55;100.00;98061.05;102401;1310;75167;-78
2021/12/09 07:14:35;;;;;;;62.40;32.80;;;;;;;-2.53;100.00;98057.51;102454;1314;70770;-79
2021/12/09 07:17:01;;;;;;;64.70;32.20;;;;;;;-2.52;100.00;98058.15;102169;1313;73892;-79
2021/12/09 07:19:28;;;;;;;64.00;34.40;;;;;;;-2.49;100.00;98053.73;102446;1311;61431;-78
2021/12/09 07:21:54;;;;;;;63.20;35.70;;;;;;;-2.46;100.00;98052.07;102484;1311;61414;-79
2021/12/09 07:24:21;;;;;;;60.40;33.00;;;;;;;-2.44;100.00;98059.30;102008;1317;61427;-79
2021/12/09 07:26:48;;;;;;;55.60;30.90;;;;;;;-2.41;100.00;98056.46;102466;1314;70048;-79
2021/12/09 07:29:15;;;;;;;60.90;31.80;;;;;;;-2.39;100.00;98047.17;102492;1314;73494;-79
2021/12/09 07:31:41;;;;;;;60.90;32.90;;;;;;;-2.36;100.00;98043.25;102485;1313;61305;-78
2021/12/09 07:34:08;;;;;;;68.30;34.90;;;;;;;-2.31;100.00;98043.98;102230;1317;61426;-79
2021/12/09 07:36:35;;;;;;;63.80;32.80;;;;;;;-2.28;99.99;98048.40;102515;1310;76358;-79
2021/12/09 07:39:02;;;;;;;63.70;34.00;;;;;;;-2.25;99.88;98042.23;102415;1310;69366;-79
2021/12/09 07:41:28;;;;;;;58.60;32.80;;;;;;;-2.24;99.90;98034.02;102532;1313;72880;-79
2021/12/09 07:43:55;;;;;;;64.60;36.30;;;;;;;-2.25;99.73;98046.90;102653;1310;61595;-79
2021/12/09 07:46:22;;;;;;;58.30;32.40;;;;;;;-2.24;99.81;98063.07;102343;1316;61446;-79
2021/12/09 07:48:48;;;;;;;66.00;34.30;;;;;;;-2.24;99.77;98062.89;102264;1317;61269;-81
2021/12/09 07:51:15;;;;;;;59.80;34.00;;;;;;;-2.23;99.67;98077.31;102527;1311;69238;-80
2021/12/09 07:53:42;;;;;;;61.20;34.00;;;;;;;-2.22;99.71;98083.87;102477;1311;70704;-79
2021/12/09 07:56:09;;;;;;;59.00;35.20;;;;;;;-2.19;99.75;98085.38;102490;1310;61308;-78
2021/12/09 07:58:35;;;;;;;60.20;33.10;;;;;;;-2.19;99.58;98086.40;102790;1310;61436;-79
2021/12/09 08:01:03;;;;;;;52.80;32.30;;;;;;;-2.17;99.68;98089.48;102525;1313;76248;-79
2021/12/09 08:03:30;;;;;;;57.90;33.20;;;;;;;-2.15;99.56;98094.30;102503;1313;70039;-79
2021/12/09 08:05:57;;;;;;;58.90;33.90;;;;;;;-2.14;99.57;98093.04;102743;1317;71775;-81
2021/12/09 08:08:24;;;;;;;79.80;39.70;;;;;;;-2.12;99.45;98087.25;102625;1310;61319;-75
2021/12/09 08:10:58;;;;;;;60.30;33.70;;;;;;;-2.09;99.40;98087.31;102304;1313;61186;-73
2021/12/09 08:13:27;;;;;;;56.30;33.00;;;;;;;-2.02;99.45;98085.89;102528;1313;74629;-73
2021/12/09 08:15:54;;;;;;;56.90;32.10;;;;;;;-1.93;99.26;98078.65;102551;1314;69379;-75
2021/12/09 08:20:52;;;;;;;60.90;34.60;;;;;;;-1.61;98.90;98076.57;102150;1310;62901;-74
2021/12/09 08:23:19;;;;;;;63.30;33.40;;;;;;;-1.47;98.58;98071.06;102628;1314;61952;-79
2021/12/09 08:25:48;;;;;;;61.50;33.30;;;;;;;-1.37;98.61;98067.73;102605;1311;76251;-78
2021/12/09 08:28:16;;;;;;;58.90;32.80;;;;;;;-1.31;98.05;98062.88;102549;1310;69285;-78
2021/12/09 08:30:43;;;;;;;61.00;33.90;;;;;;;-1.36;97.76;98063.36;102453;1314;74570;-77
2021/12/09 08:33:09;;;;;;;51.30;30.90;;;;;;;-1.38;97.94;98066.75;102699;1314;61343;-79
2021/12/09 08:35:37;;;;;;;54.00;33.70;;;;;;;-1.40;97.98;98071.33;102485;1314;61188;-79
2021/12/09 08:38:08;;;;;;;53.50;34.30;;;;;;;-1.40;98.01;98080.59;102736;1314;74777;-78
2021/12/09 08:40:36;;;;;;;53.20;34.30;;;;;;;-1.40;98.14;98079.54;102559;1313;69608;-78
2021/12/09 08:43:04;;;;;;;60.10;34.50;;;;;;;-1.40;98.18;98084.73;102609;1314;73401;-78
2021/12/09 08:45:31;;;;;;;57.30;33.30;;;;;;;-1.39;98.05;98092.55;102455;1313;61319;-76
2021/12/09 08:47:58;;;;;;;60.80;33.50;;;;;;;-1.40;97.95;98094.85;102512;1314;61453;-80
2021/12/09 08:50:33;;;;;;;55.80;34.30;;;;;;;-1.40;97.85;98085.27;102630;1314;74660;-76
2021/12/09 08:53:07;;;;;;;61.00;35.10;;;;;;;-1.35;97.88;98079.71;102105;1314;70520;-75
2021/12/09 08:55:34;;;;;;;56.40;33.90;;;;;;;-1.28;97.80;98078.10;102504;1317;73469;-79
2021/12/09 08:58:01;;;;;;;49.20;29.40;;;;;;;-1.20;97.65;98070.33;102416;1313;61444;-73
2021/12/09 09:00:30;;;;;;;49.80;31.90;;;;;;;-1.17;97.30;98064.80;102471;1317;61966;-76
2021/12/09 09:02:57;;;;;;;45.90;28.30;;;;;;;-1.15;97.34;98060.23;102485;1316;76455;-76
2021/12/09 09:05:24;;;;;;;45.60;31.00;;;;;;;-1.17;97.07;98060.81;102455;1316;70644;-79
2021/12/09 09:07:51;;;;;;;53.50;31.00;;;;;;;-1.22;97.27;98059.06;102438;1317;74410;-76
2021/12/09 09:10:22;;;;;;;50.40;29.70;;;;;;;-1.23;97.24;98060.34;102257;1320;61387;-77
2021/12/09 09:12:50;;;;;;;50.30;31.00;;;;;;;-1.29;97.11;98057.39;102733;1316;62727;-78
2021/12/09 09:15:19;;;;;;;48.50;29.20;;;;;;;-1.36;97.04;98064.77;102147;1316;75221;-78
2021/12/09 09:17:46;;;;;;;49.20;28.20;;;;;;;-1.42;97.07;98059.05;102203;1316;68217;-84
2021/12/09 09:20:14;;;;;;;48.40;31.50;;;;;;;-1.43;97.12;98063.60;103234;1316;73257;-86
2021/12/09 09:22:41;;;;;;;51.50;30.20;;;;;;;-1.39;97.29;98062.95;102853;1316;61343;-75
2021/12/09 09:25:14;;;;;;;47.40;30.30;;;;;;;-1.35;97.24;98052.53;102606;1311;61298;-77
2021/12/09 09:27:41;;;;;;;50.20;31.10;;;;;;;-1.31;97.12;98054.49;103704;1317;75970;-78
2021/12/09 09:30:08;;;;;;;52.50;31.10;;;;;;;-1.34;96.95;98056.69;105154;1317;67470;-80
2021/12/09 09:32:35;;;;;;;47.90;29.60;;;;;;;-1.39;96.87;98050.92;103575;1313;1003126;-79
2021/12/09 09:35:01;;;;;;;51.00;31.80;;;;;;;-1.41;97.08;98047.34;103420;1314;61395;-76
2021/12/09 09:37:28;;;;;;;52.70;31.00;;;;;;;-1.38;97.10;98047.91;102640;1314;61349;-76
2021/12/09 09:39:55;;;;;;;54.10;33.80;;;;;;;-1.35;97.12;98048.34;102622;1314;61768;-76
2021/12/09 09:42:54;;;;;;;50.40;31.90;;;;;;;-1.31;97.22;98040.21;102551;1315;70377;-77
2021/12/09 09:45:17;;;;;;;51.30;31.60;;;;;;;-1.21;97.12;98037.93;102603;1313;74810;-77
2021/12/09 09:47:44;;;;;;;56.90;35.20;;;;;;;-1.11;97.35;98037.74;102700;1314;61305;-76
2021/12/09 09:50:12;;;;;;;56.20;34.50;;;;;;;-0.96;97.27;98023.63;102646;1308;61492;-76
2021/12/09 09:52:40;;;;;;;49.80;32.00;;;;;;;-0.88;96.70;98020.03;102649;1313;76112;-75
2021/12/09 09:55:09;;;;;;;48.90;33.10;;;;;;;-0.86;96.40;98029.91;102317;1316;69485;-78
2021/12/09 09:57:37;;;;;;;51.20;32.50;;;;;;;-0.85;96.25;98037.02;102656;1308;73062;-73
2021/12/09 10:00:08;;;;;;;54.90;35.00;;;;;;;-0.84;95.99;98042.38;102609;1314;61167;-78
2021/12/09 10:02:36;;;;;;;51.80;34.20;;;;;;;-0.83;96.20;98044.61;102637;1314;61434;-76
2021/12/09 10:05:33;;;;;;;53.10;33.10;;;;;;;-0.79;96.12;98034.70;102311;1314;74881;-76
2021/12/09 10:08:00;;;;;;;56.40;37.10;;;;;;;-0.78;96.24;98017.04;102325;1320;70494;-76
2021/12/09 10:10:26;;;;;;;52.40;32.50;;;;;;;-0.70;96.02;98008.55;102342;1313;73204;-76
2021/12/09 10:12:58;;;;;;;53.40;33.00;;;;;;;-0.68;95.77;98005.35;102365;1313;61364;-77
2021/12/09 10:15:47;;;;;;;50.90;32.30;;;;;;;-0.67;95.68;98005.29;102376;1314;62385;-75
2021/12/09 10:18:32;;;;;;;49.30;33.20;;;;;;;-0.62;95.47;97995.02;102658;1320;76476;-83
2021/12/09 10:20:59;;;;;;;51.70;32.10;;;;;;;-0.66;95.28;98001.27;102868;1317;69465;-76
2021/12/09 10:23:34;;;;;;;49.00;31.50;;;;;;;-0.65;95.52;97997.03;103026;1307;73465;-78
2021/12/09 10:26:23;;;;;;;52.30;30.20;;;;;;;-0.64;95.36;97991.94;103344;1308;61279;-79
2021/12/09 10:29:08;;;;;;;49.40;30.40;;;;;;;-0.66;95.35;97990.27;103490;1314;61805;-78
2021/12/09 10:32:06;;;;;;;47.60;30.70;;;;;;;-0.71;95.01;97979.11;104114;1308;75124;-75
2021/12/09 10:34:45;;;;;;;54.50;31.10;;;;;;;-0.77;95.11;97969.91;104987;1320;68492;-83
2021/12/09 10:37:23;;;;;;;48.20;30.90;;;;;;;-0.78;95.17;97972.23;104563;1326;73288;-83
2021/12/09 10:40:03;;;;;;;45.80;28.70;;;;;;;-0.81;94.74;97968.15;104721;1317;59453;-78
2021/12/09 10:42:37;;;;;;;48.60;30.10;;;;;;;-0.86;94.57;97959.09;104785;1317;61039;-82
2021/12/09 10:45:04;;;;;;;44.70;29.50;;;;;;;-0.83;94.90;97966.33;103798;1319;74070;-81
2021/12/09 10:47:47;;;;;;;48.10;29.00;;;;;;;-0.75;94.77;97965.49;102395;1320;70499;-81
2021/12/09 10:50:26;;;;;;;45.00;28.30;;;;;;;-0.70;94.67;97965.27;102625;1317;74046;-82
2021/12/09 10:55:52;;;;;;;49.00;26.30;;;;;;;-0.68;94.06;97955.98;102152;1317;61911;-81
2021/12/09 10:58:26;;;;;;;43.70;27.30;;;;;;;-0.67;94.51;97954.54;102090;1317;74672;-81
2021/12/09 11:00:56;;;;;;;44.30;27.50;;;;;;;-0.67;94.42;97951.23;101530;1324;68643;-80
2021/12/09 11:03:27;;;;;;;;;;;;;;;-0.68;94.65;97940.29;101863;1317;72376;-81
2021/12/09 11:05:56;;;;;;;40.40;25.00;;;;;;;-0.69;94.59;97935.41;102012;1322;61375;-79
2021/12/09 11:08:22;;;;;;;51.60;31.60;;;;;;;-0.68;94.53;97938.36;102134;1317;61896;-81
2021/12/09 11:10:57;;;;;;;41.40;25.90;;;;;;;-0.61;94.88;97939.69;102122;1315;61302;-83
2021/12/09 11:13:25;;;;;;;41.50;27.80;;;;;;;-0.55;94.69;97932.81;102525;1314;70505;-80
2021/12/09 11:15:57;;;;;;;40.50;26.80;;;;;;;-0.53;94.79;97936.36;102680;1307;73640;-80
2021/12/09 11:18:39;;;;;;;43.30;27.40;;;;;;;-0.49;94.80;97937.79;102459;1314;61371;-80
2021/12/09 11:21:23;;;;;;;44.10;25.50;;;;;;;-0.50;94.76;97934.50;102604;1308;62276;-80
2021/12/09 11:24:00;;;;;;;43.90;27.50;;;;;;;-0.52;94.53;97935.27;102620;1308;75479;-81
2021/12/09 11:26:47;;;;;;;43.90;24.70;;;;;;;-0.57;94.61;97935.16;102583;1308;70435;-83